createdAt,value
2022-12-08T00:02:16.440Z,11.40
2022-12-08T00:04:43.348Z,11.28
2022-12-08T00:07:10.215Z,10.83
2022-12-08T00:09:40.034Z,10.90
2022-12-08T00:12:10.333Z,11.00
2022-12-08T00:14:39.524Z,11.21
2022-12-08T00:17:08.140Z,11.07
2022-12-08T00:19:34.928Z,11.00
2022-12-08T00:22:02.531Z,10.73
2022-12-08T00:24:54.564Z,10.76
2022-12-08T00:27:23.143Z,10.77
2022-12-08T00:29:50.197Z,10.88
2022-12-08T00:32:16.819Z,10.79
2022-12-08T00:34:43.648Z,10.75
2022-12-08T00:37:10.243Z,10.84
2022-12-08T00:39:36.979Z,10.65
2022-12-08T00:42:04.144Z,10.71
2022-12-08T00:44:32.598Z,10.65
2022-12-08T00:46:59.192Z,10.72
2022-12-08T00:49:25.983Z,10.80
2022-12-08T00:51:53.034Z,10.97
2022-12-08T00:54:20.426Z,11.00
2022-12-08T00:56:48.033Z,11.04
2022-12-08T00:59:15.019Z,11.13
2022-12-08T01:01:44.897Z,11.21
2022-12-08T01:04:13.831Z,11.34
2022-12-08T01:06:40.517Z,11.38
2022-12-08T01:09:09.013Z,11.40
2022-12-08T01:11:36.476Z,11.38
2022-12-08T01:14:03.777Z,11.41
2022-12-08T01:16:32.275Z,11.40
2022-12-08T01:19:00.727Z,11.33
2022-12-08T01:21:27.583Z,11.37
2022-12-08T01:23:55.215Z,11.34
2022-12-08T01:26:22.723Z,11.43
2022-12-08T01:28:49.797Z,11.44
2022-12-08T01:31:19.239Z,11.50
2022-12-08T01:33:46.663Z,11.54
2022-12-08T01:36:21.307Z,11.40
2022-12-08T01:38:48.165Z,11.47
2022-12-08T01:41:16.353Z,11.45
2022-12-08T01:44:45.055Z,11.48
2022-12-08T01:47:12.109Z,11.34
2022-12-08T01:49:38.877Z,11.41
2022-12-08T01:52:14.057Z,11.53
2022-12-08T01:54:45.834Z,11.53
2022-12-08T01:57:16.647Z,11.54
2022-12-08T01:59:48.196Z,11.38
2022-12-08T02:02:15.336Z,11.35
2022-12-08T02:04:42.239Z,11.27
2022-12-08T02:07:12.870Z,11.26
2022-12-08T02:09:41.496Z,11.28
2022-12-08T02:12:09.756Z,11.30
2022-12-08T02:14:38.705Z,11.34
2022-12-08T02:17:17.957Z,11.35
2022-12-08T02:20:08.539Z,11.40
2022-12-08T02:22:46.427Z,11.48
2022-12-08T02:25:20.849Z,11.47
2022-12-08T02:28:02.856Z,11.44
2022-12-08T02:30:38.029Z,11.43
2022-12-08T02:33:46.393Z,11.30
2022-12-08T02:36:20.391Z,11.31
2022-12-08T02:38:58.135Z,11.26
2022-12-08T02:41:36.861Z,11.34
2022-12-08T02:44:10.876Z,11.33
2022-12-08T02:46:40.968Z,11.38
2022-12-08T02:49:09.732Z,11.41
2022-12-08T02:51:36.581Z,11.47
2022-12-08T02:54:04.152Z,11.51
2022-12-08T02:56:46.365Z,11.51
2022-12-08T02:59:27.574Z,11.43
2022-12-08T03:02:16.632Z,11.47
2022-12-08T03:04:50.357Z,11.37
2022-12-08T03:07:24.392Z,11.34
2022-12-08T03:09:55.235Z,11.24
2022-12-08T03:12:30.497Z,11.34
2022-12-08T03:15:02.240Z,11.38
2022-12-08T03:17:33.406Z,11.45
2022-12-08T03:20:07.378Z,11.55
2022-12-08T03:22:42.769Z,11.60
2022-12-08T03:25:12.864Z,11.70
2022-12-08T03:27:39.670Z,11.81
2022-12-08T03:30:09.632Z,11.89
2022-12-08T03:32:41.204Z,11.98
2022-12-08T03:35:14.391Z,12.01
2022-12-08T03:37:41.680Z,11.98
2022-12-08T03:40:12.276Z,11.92
2022-12-08T03:42:39.225Z,11.94
2022-12-08T03:45:07.011Z,11.92
2022-12-08T03:47:33.795Z,11.86
2022-12-08T03:50:00.549Z,11.91
2022-12-08T03:52:28.772Z,11.92
2022-12-08T03:54:55.394Z,11.86
2022-12-08T03:57:22.682Z,11.85
2022-12-08T03:59:49.476Z,11.77
2022-12-08T04:02:16.187Z,11.77
2022-12-08T04:04:44.340Z,11.75
2022-12-08T04:07:10.958Z,11.79
2022-12-08T04:09:39.111Z,11.78
2022-12-08T04:12:06.331Z,11.82
2022-12-08T04:14:33.277Z,11.85
2022-12-08T04:16:59.899Z,11.84
2022-12-08T04:19:26.617Z,11.86
2022-12-08T04:21:53.513Z,11.91
2022-12-08T04:24:20.291Z,11.95
2022-12-08T04:26:48.408Z,11.94
2022-12-08T04:29:15.126Z,11.84
2022-12-08T04:31:41.914Z,11.84
2022-12-08T04:34:11.359Z,11.84
2022-12-08T04:36:38.032Z,11.84
2022-12-08T04:39:04.986Z,11.82
2022-12-08T04:41:32.276Z,11.65
2022-12-08T04:44:00.331Z,11.75
2022-12-08T04:46:26.986Z,11.78
2022-12-08T04:48:53.848Z,11.84
2022-12-08T04:51:21.721Z,11.81
2022-12-08T04:56:39.513Z,11.84
2022-12-08T04:59:07.538Z,11.79
2022-12-08T05:01:34.413Z,11.91
2022-12-08T05:04:01.173Z,11.89
2022-12-08T05:06:27.945Z,11.94
2022-12-08T05:08:54.957Z,12.04
2022-12-08T05:11:21.673Z,12.09
2022-12-08T05:13:48.604Z,12.06
2022-12-08T05:16:16.732Z,12.12
2022-12-08T05:18:45.178Z,12.12
2022-12-08T05:21:12.188Z,12.18
2022-12-08T05:23:39.307Z,12.16
2022-12-08T05:26:06.173Z,12.19
2022-12-08T05:28:42.650Z,12.16
2022-12-08T05:31:10.239Z,12.21
2022-12-08T05:33:38.758Z,12.19
2022-12-08T05:36:05.913Z,12.19
2022-12-08T05:38:32.897Z,12.25
2022-12-08T05:40:59.778Z,12.30
2022-12-08T05:43:26.841Z,12.29
2022-12-08T05:45:53.515Z,12.26
2022-12-08T05:48:20.400Z,12.21
2022-12-08T05:50:49.175Z,12.09
2022-12-08T05:53:16.797Z,11.91
2022-12-08T05:55:43.433Z,11.75
2022-12-08T05:58:12.757Z,11.65
2022-12-08T06:00:39.505Z,11.47
2022-12-08T06:03:06.238Z,11.47
2022-12-08T06:05:33.623Z,11.37
2022-12-08T06:08:02.109Z,11.43
2022-12-08T06:10:28.843Z,11.38
2022-12-08T06:12:55.959Z,11.43
2022-12-08T06:15:22.545Z,11.30
2022-12-08T06:17:49.450Z,11.26
2022-12-08T06:20:16.114Z,11.30
2022-12-08T06:22:43.062Z,11.35
2022-12-08T06:25:11.633Z,11.33
2022-12-08T06:27:38.653Z,11.40
2022-12-08T06:30:07.138Z,11.43
2022-12-08T06:32:34.200Z,11.53
2022-12-08T06:35:04.037Z,11.64
2022-12-08T06:37:30.783Z,11.70
2022-12-08T06:39:57.744Z,11.82
2022-12-08T06:42:25.714Z,11.85
2022-12-08T06:44:52.567Z,11.91
2022-12-08T06:47:25.931Z,12.01
2022-12-08T06:49:52.888Z,12.06
2022-12-08T06:52:19.479Z,12.09
2022-12-08T06:54:46.090Z,12.11
2022-12-08T06:57:39.113Z,12.15
2022-12-08T07:00:07.645Z,12.21
2022-12-08T07:02:37.912Z,12.22
2022-12-08T07:05:05.327Z,12.32
2022-12-08T07:07:32.068Z,12.37
2022-12-08T07:09:59.104Z,12.35
2022-12-08T07:12:25.975Z,12.33
2022-12-08T07:14:53.970Z,12.36
2022-12-08T07:17:20.611Z,12.35
2022-12-08T07:19:47.315Z,12.39
2022-12-08T07:22:14.084Z,12.43
2022-12-08T07:24:41.219Z,12.42
2022-12-08T07:27:07.881Z,12.53
2022-12-08T07:29:34.724Z,12.54
2022-12-08T07:32:02.712Z,12.61
2022-12-08T07:34:29.455Z,12.68
2022-12-08T07:36:56.429Z,12.73
2022-12-08T07:39:23.156Z,12.72
2022-12-08T07:41:50.027Z,12.74
2022-12-08T07:44:16.827Z,12.80
2022-12-08T07:46:43.493Z,12.90
2022-12-08T07:49:11.632Z,12.98
2022-12-08T07:51:38.215Z,13.04
2022-12-08T07:54:05.226Z,13.10
2022-12-08T07:56:31.859Z,13.12
2022-12-08T07:58:58.737Z,13.18
2022-12-08T08:01:26.982Z,13.24
2022-12-08T08:03:55.610Z,13.27
2022-12-08T08:06:23.964Z,13.34
2022-12-08T08:08:50.647Z,13.37
2022-12-08T08:11:21.391Z,13.41
2022-12-08T08:13:48.840Z,13.45
2022-12-08T08:16:15.811Z,13.51
2022-12-08T08:18:42.742Z,13.49
2022-12-08T08:21:43.174Z,13.52
2022-12-08T08:23:57.491Z,13.54
2022-12-08T08:26:24.520Z,13.56
2022-12-08T08:28:51.294Z,13.59
2022-12-08T08:31:18.217Z,13.59
2022-12-08T08:33:45.102Z,13.59
2022-12-08T08:36:12.284Z,13.56
2022-12-08T08:38:39.335Z,13.54
2022-12-08T08:41:10.938Z,13.51
2022-12-08T08:43:38.929Z,13.49
2022-12-08T08:46:06.357Z,13.48
2022-12-08T08:48:33.266Z,13.45
2022-12-08T08:51:07.582Z,13.45
2022-12-08T08:53:34.599Z,13.39
2022-12-08T08:56:02.923Z,13.39
2022-12-08T08:58:31.284Z,13.39
2022-12-08T09:00:58.160Z,13.39
2022-12-08T09:03:25.051Z,13.37
2022-12-08T09:05:52.636Z,13.37
2022-12-08T09:08:19.464Z,13.38
2022-12-08T09:10:46.906Z,13.41
2022-12-08T09:13:13.508Z,13.42
2022-12-08T09:15:41.591Z,13.44
2022-12-08T09:18:08.224Z,13.44
2022-12-08T09:20:35.421Z,13.45
2022-12-08T09:23:02.229Z,13.48
2022-12-08T09:25:29.031Z,13.52
2022-12-08T09:28:21.029Z,13.52
2022-12-08T09:30:51.066Z,13.54
2022-12-08T09:33:17.922Z,13.58
2022-12-08T09:35:44.754Z,13.58
2022-12-08T09:38:11.381Z,13.59
2022-12-08T09:40:47.652Z,13.61
2022-12-08T09:43:25.270Z,13.63
2022-12-08T09:45:55.167Z,13.68
2022-12-08T09:48:25.261Z,13.70
2022-12-08T09:50:55.149Z,13.73
2022-12-08T09:53:30.632Z,13.78
2022-12-08T09:56:08.464Z,13.78
2022-12-08T09:58:47.287Z,13.76
2022-12-08T10:01:16.344Z,13.78
2022-12-08T10:03:43.931Z,13.75
2022-12-08T10:06:19.097Z,13.70
2022-12-08T10:08:57.180Z,13.70
2022-12-08T10:11:30.926Z,13.72
2022-12-08T10:14:10.079Z,13.70
2022-12-08T10:16:41.748Z,13.70
2022-12-08T10:19:14.657Z,13.63
2022-12-08T10:21:41.363Z,13.63
2022-12-08T10:24:16.114Z,13.65
2022-12-08T10:26:43.213Z,13.69
2022-12-08T10:29:12.524Z,13.62
2022-12-08T10:31:40.883Z,13.56
2022-12-08T10:34:17.428Z,13.54
2022-12-08T10:36:49.311Z,13.51
2022-12-08T10:39:37.471Z,13.52
2022-12-08T10:42:16.801Z,13.51
2022-12-08T10:44:54.200Z,13.52
2022-12-08T10:47:24.603Z,13.45
2022-12-08T10:50:15.980Z,13.38
2022-12-08T10:52:42.596Z,13.34
2022-12-08T10:55:16.849Z,13.34
2022-12-08T10:57:43.947Z,13.34
2022-12-08T11:00:14.704Z,13.31
2022-12-08T11:02:58.305Z,13.25
2022-12-08T11:05:29.235Z,13.28
2022-12-08T11:07:56.551Z,13.38
2022-12-08T11:10:32.014Z,13.45
2022-12-08T11:13:01.421Z,13.48
2022-12-08T11:15:34.542Z,13.55
2022-12-08T11:18:08.550Z,13.48
2022-12-08T11:20:44.508Z,13.45
2022-12-08T11:23:23.843Z,13.48
2022-12-08T11:25:53.673Z,13.49
2022-12-08T11:28:24.185Z,13.51
2022-12-08T11:30:56.670Z,13.55
2022-12-08T11:33:25.592Z,13.58
2022-12-08T11:35:59.679Z,13.55
2022-12-08T11:38:28.473Z,13.49
2022-12-08T11:40:59.261Z,13.48
2022-12-08T11:43:34.756Z,13.48
2022-12-08T11:46:03.571Z,13.49
2022-12-08T11:48:35.138Z,13.55
2022-12-08T11:51:09.460Z,13.63
2022-12-08T11:53:41.802Z,13.70
2022-12-08T11:56:16.501Z,13.78
2022-12-08T11:58:47.571Z,13.86
2022-12-08T12:01:19.104Z,13.89
2022-12-08T12:03:52.906Z,13.91
2022-12-08T12:06:56.271Z,13.99
2022-12-08T12:09:36.876Z,14.02
2022-12-08T12:12:12.472Z,14.09
2022-12-08T12:14:56.400Z,14.16
2022-12-08T12:17:33.907Z,14.20
2022-12-08T12:20:05.075Z,14.30
2022-12-08T12:22:35.697Z,14.31
2022-12-08T12:25:03.330Z,14.34
2022-12-08T12:27:36.501Z,14.30
2022-12-08T12:30:07.975Z,14.30
2022-12-08T12:32:44.471Z,14.23
2022-12-08T12:35:16.467Z,14.14
2022-12-08T12:37:44.465Z,14.16
2022-12-08T12:40:18.902Z,14.12
2022-12-08T12:42:47.623Z,14.17
2022-12-08T12:45:28.310Z,14.16
2022-12-08T12:48:14.164Z,14.16
2022-12-08T12:50:43.065Z,14.16
2022-12-08T12:53:43.379Z,14.19
2022-12-08T12:56:11.343Z,14.17
2022-12-08T12:58:40.199Z,14.16
2022-12-08T13:01:46.973Z,14.17
2022-12-08T13:04:14.111Z,14.20
2022-12-08T13:06:44.088Z,14.27
2022-12-08T13:09:23.272Z,14.29
2022-12-08T13:11:54.233Z,14.30
2022-12-08T13:14:48.762Z,14.34
2022-12-08T13:17:23.053Z,14.36
2022-12-08T13:19:55.658Z,14.37
2022-12-08T13:22:59.639Z,14.33
2022-12-08T13:25:50.688Z,14.24
2022-12-08T13:28:24.697Z,14.23
2022-12-08T13:30:52.700Z,14.19
2022-12-08T13:33:24.456Z,14.17
2022-12-08T13:36:00.399Z,14.10
2022-12-08T13:38:31.203Z,14.09
2022-12-08T13:41:02.907Z,14.03
2022-12-08T13:43:47.716Z,14.02
2022-12-08T13:51:07.016Z,14.02
2022-12-08T13:58:29.282Z,13.99
2022-12-08T14:01:04.627Z,14.00
2022-12-08T14:04:12.824Z,14.02
2022-12-08T14:06:38.037Z,13.97
2022-12-08T14:09:11.357Z,13.90
2022-12-08T14:11:39.689Z,13.85
2022-12-08T14:14:14.458Z,13.80
2022-12-08T14:16:53.811Z,13.79
2022-12-08T14:19:22.679Z,13.75
2022-12-08T14:21:57.499Z,13.76
2022-12-08T14:24:51.512Z,13.78
2022-12-08T14:27:22.550Z,13.79
2022-12-08T14:30:19.957Z,13.82
2022-12-08T14:32:50.668Z,13.85
2022-12-08T14:35:23.962Z,13.85
2022-12-08T14:37:54.528Z,13.80
2022-12-08T14:40:24.411Z,13.80
2022-12-08T14:42:53.690Z,13.79
2022-12-08T14:45:21.219Z,13.78
2022-12-08T14:47:49.168Z,13.79
2022-12-08T14:50:38.717Z,13.78
2022-12-08T14:53:11.903Z,13.78
2022-12-08T14:55:38.940Z,13.82
2022-12-08T15:00:58.366Z,13.83
2022-12-08T15:03:28.780Z,13.85
2022-12-08T15:05:58.505Z,13.83
2022-12-08T15:08:25.346Z,13.82
2022-12-08T15:11:13.414Z,13.80
2022-12-08T15:13:44.822Z,13.79
2022-12-08T15:16:25.476Z,13.82
2022-12-08T15:19:03.922Z,13.80
2022-12-08T15:21:36.192Z,13.78
2022-12-08T15:24:03.128Z,13.76
2022-12-08T15:26:35.322Z,13.72
2022-12-08T15:29:11.080Z,13.68
2022-12-08T15:31:38.272Z,13.66
2022-12-08T15:34:06.488Z,13.65
2022-12-08T15:36:33.646Z,13.63
2022-12-08T15:39:00.601Z,13.61
2022-12-08T15:41:27.188Z,13.58
2022-12-08T15:43:54.254Z,13.55
2022-12-08T15:46:21.339Z,13.51
2022-12-08T15:48:48.193Z,13.51
2022-12-08T15:51:16.292Z,13.45
2022-12-08T15:53:43.450Z,13.35
2022-12-08T15:56:27.399Z,13.38
2022-12-08T15:58:56.891Z,13.38
2022-12-08T16:01:24.674Z,13.38
2022-12-08T16:09:31.199Z,13.44
2022-12-08T16:12:07.559Z,13.44
2022-12-08T16:17:22.758Z,13.46
2022-12-08T16:19:49.694Z,13.49
2022-12-08T16:25:18.717Z,13.56
2022-12-08T16:30:59.515Z,13.51
2022-12-08T16:33:26.239Z,13.49
2022-12-08T16:35:53.238Z,13.45
2022-12-08T16:38:21.206Z,13.46
2022-12-08T16:40:47.849Z,13.46
2022-12-08T16:43:14.892Z,13.48
2022-12-08T16:45:44.986Z,13.48
2022-12-08T16:48:14.608Z,13.46
2022-12-08T16:50:44.968Z,13.49
2022-12-08T16:53:12.907Z,13.49
2022-12-08T16:55:46.184Z,13.48
2022-12-08T16:58:12.976Z,13.44
2022-12-08T17:00:40.139Z,13.44
2022-12-08T17:03:07.932Z,13.44
2022-12-08T17:05:35.712Z,13.42
2022-12-08T17:08:02.463Z,13.41
2022-12-08T17:10:30.975Z,13.42
2022-12-08T17:12:58.986Z,13.44
2022-12-08T17:15:26.112Z,13.46
2022-12-08T17:17:53.134Z,13.45
2022-12-08T17:20:22.219Z,13.42
2022-12-08T17:22:49.649Z,13.37
2022-12-08T17:25:16.342Z,13.29
2022-12-08T17:27:43.061Z,13.28
2022-12-08T17:30:36.059Z,13.29
2022-12-08T17:33:02.849Z,13.31
2022-12-08T17:35:29.753Z,13.29
2022-12-08T17:39:27.119Z,13.28
2022-12-08T17:41:53.941Z,13.29
2022-12-08T17:44:20.703Z,13.28
2022-12-08T17:46:52.460Z,13.25
2022-12-08T17:49:21.425Z,13.22
2022-12-08T17:51:49.094Z,13.18
2022-12-08T17:54:16.475Z,13.19
2022-12-08T17:57:51.999Z,13.39
2022-12-08T18:00:19.482Z,13.39
2022-12-08T18:02:46.660Z,13.31
2022-12-08T18:05:13.731Z,13.17
2022-12-08T18:07:40.748Z,13.04
2022-12-08T18:10:08.480Z,12.86
2022-12-08T18:12:35.588Z,12.74
2022-12-08T18:15:06.632Z,12.63
2022-12-08T18:17:33.432Z,12.56
2022-12-08T18:20:00.349Z,12.56
2022-12-08T18:22:27.335Z,12.57
2022-12-08T18:24:54.326Z,12.59
2022-12-08T18:27:21.138Z,12.53
2022-12-08T18:29:47.939Z,12.50
2022-12-08T18:32:16.271Z,12.50
2022-12-08T18:34:43.241Z,12.53
2022-12-08T18:37:09.972Z,12.53
2022-12-08T18:39:36.848Z,12.54
2022-12-08T18:42:04.101Z,12.54
2022-12-08T18:44:30.936Z,12.56
2022-12-08T18:46:57.677Z,12.57
2022-12-08T18:49:25.996Z,12.59
2022-12-08T18:51:52.907Z,12.56
2022-12-08T18:54:22.073Z,12.53
2022-12-08T18:56:54.555Z,12.50
2022-12-08T19:02:12.730Z,12.47
2022-12-08T19:04:41.610Z,12.47
2022-12-08T19:07:08.554Z,12.47
2022-12-08T19:09:39.263Z,12.43
2022-12-08T19:12:06.835Z,12.40
2022-12-08T19:14:34.757Z,12.35
2022-12-08T19:17:02.557Z,12.21
2022-12-08T19:19:29.355Z,12.04
2022-12-08T19:21:57.728Z,11.82
2022-12-08T19:24:24.814Z,11.67
2022-12-08T19:26:52.181Z,11.61
2022-12-08T19:32:10.747Z,11.61
2022-12-08T19:34:37.609Z,11.60
2022-12-08T19:37:05.979Z,11.65
2022-12-08T19:39:32.753Z,11.64
2022-12-08T19:41:59.671Z,11.57
2022-12-08T19:44:28.970Z,11.57
2022-12-08T19:46:55.961Z,11.50
2022-12-08T19:49:22.949Z,11.55
2022-12-08T19:51:49.764Z,11.60
2022-12-08T19:54:18.012Z,11.63
2022-12-08T19:56:44.879Z,11.71
2022-12-08T19:59:11.882Z,11.78
2022-12-08T20:01:39.086Z,11.85
2022-12-08T20:04:06.110Z,11.88
2022-12-08T20:06:32.938Z,11.88
2022-12-08T20:09:00.195Z,11.79
2022-12-08T20:11:28.246Z,11.77
2022-12-08T20:13:55.249Z,11.79
2022-12-08T20:16:22.268Z,11.82
2022-12-08T20:18:49.803Z,11.89
2022-12-08T20:21:17.275Z,11.95
2022-12-08T20:23:44.207Z,11.95
2022-12-08T20:26:13.376Z,11.98
2022-12-08T20:28:42.028Z,11.95
2022-12-08T20:31:17.131Z,11.99
2022-12-08T20:33:44.215Z,12.05
2022-12-08T20:36:16.066Z,12.11
2022-12-08T20:38:43.558Z,12.06
2022-12-08T20:41:11.435Z,12.05
2022-12-08T20:43:38.635Z,12.09
2022-12-08T20:46:10.216Z,12.12
2022-12-08T20:48:37.352Z,12.13
2022-12-08T20:51:05.165Z,12.15
2022-12-08T20:53:32.483Z,12.09
2022-12-08T20:55:59.596Z,11.99
2022-12-08T20:58:26.628Z,11.92
2022-12-08T21:00:53.479Z,11.91
2022-12-08T21:03:22.237Z,11.91
2022-12-08T21:05:50.700Z,11.92
2022-12-08T21:08:18.506Z,11.94
2022-12-08T21:10:45.905Z,11.94
2022-12-08T21:13:12.825Z,11.94
2022-12-08T21:15:45.952Z,11.85
2022-12-08T21:18:13.257Z,11.78
2022-12-08T21:20:42.334Z,11.78
2022-12-08T21:23:09.789Z,11.82
2022-12-08T21:25:41.278Z,11.86
2022-12-08T21:28:08.727Z,11.77
2022-12-08T21:30:35.699Z,11.78
2022-12-08T21:33:02.781Z,11.85
2022-12-08T21:35:31.223Z,11.91
2022-12-08T21:37:59.566Z,11.99
2022-12-08T21:40:26.929Z,12.04
2022-12-08T21:42:53.862Z,12.08
2022-12-08T21:45:21.927Z,12.08
2022-12-08T21:47:50.206Z,12.05
2022-12-08T21:50:18.530Z,12.05
2022-12-08T21:52:48.295Z,12.01
2022-12-08T21:55:17.841Z,11.96
2022-12-08T21:57:44.790Z,11.91
2022-12-08T22:00:15.857Z,11.81
2022-12-08T22:03:13.476Z,11.68
2022-12-08T22:06:06.083Z,11.63
2022-12-08T22:08:33.546Z,11.68
2022-12-08T22:11:02.885Z,11.72
2022-12-08T22:13:30.023Z,11.70
2022-12-08T22:15:57.870Z,11.67
2022-12-08T22:18:25.127Z,11.61
2022-12-08T22:20:52.377Z,11.51
2022-12-08T22:23:20.242Z,11.47
2022-12-08T22:25:56.468Z,11.43
2022-12-08T22:28:25.329Z,11.37
2022-12-08T22:30:52.970Z,11.31
2022-12-08T22:33:20.167Z,11.27
2022-12-08T22:35:56.036Z,11.23
2022-12-08T22:38:22.921Z,11.14
2022-12-08T22:40:49.715Z,11.09
2022-12-08T22:43:17.316Z,11.06
2022-12-08T22:45:45.502Z,10.96
2022-12-08T22:48:12.955Z,10.88
2022-12-08T22:50:40.120Z,10.79
2022-12-08T22:53:07.476Z,10.68
2022-12-08T22:55:34.483Z,10.59
2022-12-08T22:58:01.196Z,10.56
2022-12-08T23:00:28.143Z,10.48
2022-12-08T23:02:56.273Z,10.31
2022-12-08T23:05:23.564Z,10.18
2022-12-08T23:07:50.988Z,10.05
2022-12-08T23:10:18.310Z,10.10
2022-12-08T23:12:45.450Z,10.01
2022-12-08T23:15:12.425Z,9.90
2022-12-08T23:17:39.360Z,9.89
2022-12-08T23:20:09.509Z,9.77
2022-12-08T23:22:36.937Z,9.67
2022-12-08T23:25:04.620Z,9.51
2022-12-08T23:27:32.038Z,9.51
2022-12-08T23:29:59.093Z,9.53
2022-12-08T23:32:26.344Z,9.38
2022-12-08T23:34:53.277Z,9.25
2022-12-08T23:37:22.274Z,9.26
2022-12-08T23:39:49.300Z,9.18
2022-12-08T23:42:16.559Z,9.18
2022-12-08T23:44:43.821Z,9.11
2022-12-08T23:47:10.948Z,9.16
2022-12-08T23:49:37.961Z,9.11
2022-12-08T23:52:05.338Z,9.04
2022-12-08T23:54:33.856Z,9.12
2022-12-08T23:57:01.047Z,9.18
2022-12-08T23:59:27.919Z,9.29
